Flight Track Log - Related Links

Times and Time Zones

All times are in EDT time to prevent confusion due to time zone crossing. See the WIG8110 flight status page for this flight to view local times or setup timezone preferences in your user account.

Time Position Orientation Groundspeed Altitude Reporting Facility
EDT Latitude Longitude Course Direction KTS MPH feet Rate Location/Type
Fri 03:06:00 AM 41.6946 -71.7494 246° West  Level FlightAware Approximate
Fri 03:08:39 AM 41.7144 -71.4333 246° West 149 171 800  Level Boston Center
Fri 03:09:39 AM 41.6981 -71.4669 237° Southwest 101 116 1,900 1,100 Climbing Boston Center
Fri 03:10:39 AM 41.6942 -71.5003 261° West 101 116 3,000 1,250 Climbing Boston Center
Fri 03:11:39 AM 41.6861 -71.5450 256° West 113 130 4,400 1,250 Climbing Boston Center
Fri 03:12:39 AM 41.6781 -71.5814 254° West 113 130 5,500 850 Climbing Boston Center
Fri 03:13:39 AM 41.6681 -71.6286 254° West 113 130 6,100 250 Climbing Boston Center
Fri 03:14:39 AM 41.6622 -71.6842 262° West 136 157 6,000 -50 Descending Boston Center
Fri 03:15:39 AM 41.6481 -71.7400 251° West 152 175 6,000  Level Boston Center
Fri 03:16:39 AM 41.6378 -71.7983 257° West 158 182 6,000  Level Boston Center
Fri 03:17:39 AM 41.6278 -71.8514 256° West 158 182 6,000  Level Boston Center
Fri 03:18:39 AM 41.6175 -71.9042 255° West 158 182 6,000  Level Boston Center
Fri 03:19:39 AM 41.6075 -71.9597 256° West 158 182 6,000  Level Boston Center
Fri 03:20:39 AM 41.5972 -72.0181 257° West 163 188 6,000  Level Boston Center
Fri 03:21:39 AM 41.5869 -72.0708 255° West 163 188 6,000  Level Boston Center
Fri 03:22:39 AM 41.5767 -72.1294 257° West 163 188 6,000  Level Boston Center
Fri 03:23:39 AM 41.5644 -72.1819 253° West 163 188 6,000  Level Boston Center
Fri 03:24:39 AM 41.5542 -72.2375 256° West 163 188 6,000  Level Boston Center
Fri 03:24:54 AM 41.5458 -72.2569 240° Southwest 157 181 6,000  Level Boston Center
Fri 03:25:39 AM 41.5417 -72.2903 261° West 163 188 6,000  Level Boston Center
Fri 03:26:39 AM 41.5292 -72.3514 255° West 163 188 6,000  Level Boston Center
Fri 03:27:39 AM 41.5208 -72.4014 257° West 163 188 6,000  Level Boston Center
Fri 03:28:39 AM 41.5064 -72.4622 252° West 163 188 6,000  Level Boston Center
Fri 03:30:10 AM 41.4833 -72.5500 251° West 165 190 6,000  Level New York TRACON
Fri 03:31:10 AM 41.4833 -72.6000 270° West 156 180 6,000  Level New York TRACON
Fri 03:32:10 AM 41.4667 -72.6667 252° West 159 183 6,000  Level New York TRACON
Fri 03:33:10 AM 41.4500 -72.7167 246° West 160 184 6,000  Level New York TRACON
Fri 03:34:10 AM 41.4500 -72.7667 270° West 157 181 6,000  Level New York TRACON
Fri 03:35:11 AM 41.4333 -72.8333 252° West 155 178 6,000  Level New York TRACON
Fri 03:36:11 AM 41.4167 -72.8833 246° West 154 177 6,000  Level New York TRACON
Fri 03:37:11 AM 41.4167 -72.9333 270° West 158 182 6,000  Level New York TRACON
Fri 03:38:11 AM 41.4000 -73.0000 252° West 159 183 6,000  Level New York TRACON
Fri 03:39:11 AM 41.3833 -73.0500 246° West 156 180 6,000  Level New York TRACON
Fri 03:40:11 AM 41.3833 -73.1000 270° West 158 182 6,000  Level New York TRACON
Fri 03:41:11 AM 41.3667 -73.1667 252° West 158 182 6,000  Level New York TRACON
Fri 03:42:11 AM 41.3500 -73.2167 246° West 161 185 6,000  Level New York TRACON
Fri 03:43:11 AM 41.3500 -73.2667 270° West 161 185 6,000  Level New York TRACON
Fri 03:44:11 AM 41.3333 -73.3333 252° West 158 182 6,000  Level New York TRACON
Fri 03:45:12 AM 41.3167 -73.3833 246° West 162 186 6,000 -99 Level New York TRACON
Fri 03:46:12 AM 41.3000 -73.4500 252° West 162 186 5,800 -300 Descending New York TRACON
Fri 03:47:12 AM 41.3000 -73.5000 270° West 168 193 5,400 -400 Descending New York TRACON
Fri 03:48:12 AM 41.2833 -73.5667 252° West 175 201 5,000 -150 Descending New York TRACON
Fri 03:49:12 AM 41.2667 -73.6333 252° West 166 191 5,100 50 Climbing New York TRACON
Fri 03:50:12 AM 41.2667 -73.6833 270° West 166 191 5,100 -50 Level New York TRACON
Fri 03:51:12 AM 41.2167 -73.7167 207° Southwest 172 198 5,000  Descending New York TRACON
Fri 03:52:12 AM 41.1833 -73.7500 217° Southwest 167 192 5,100 50 Climbing New York TRACON
Fri 03:53:12 AM 41.1500 -73.7833 217° Southwest 167 192 5,100  Level New York TRACON
Fri 03:54:13 AM 41.1167 -73.8167 217° Southwest 166 191 5,100 -50 Level New York TRACON
Fri 03:55:13 AM 41.0667 -73.8500 207° Southwest 162 186 5,000 -300 Descending New York TRACON
Fri 03:56:13 AM 41.0333 -73.9000 229° Southwest 174 200 4,500 -500 Descending New York TRACON
Fri 03:57:13 AM 41.0000 -73.9333 217° Southwest 175 201 4,000 -450 Descending New York TRACON
Fri 03:58:13 AM 40.9500 -73.9667 207° Southwest 175 201 3,600 -450 Descending New York TRACON
Fri 03:59:13 AM 40.9167 -74.0000 217° Southwest 173 199 3,100 -250 Descending New York TRACON
Fri 04:00:13 AM 40.8833 -74.0500 229° Southwest 165 190 3,100  Level New York TRACON
Fri 04:01:13 AM 40.8333 -74.0833 207° Southwest 165 190 3,100 -450 Level New York TRACON
Fri 04:02:13 AM 40.8000 -74.1000 201° Southwest 164 189 2,200 -900 Descending New York TRACON
Fri 04:03:13 AM 40.7667 -74.1333 217° Southwest 154 177 1,300 -793 Descending New York TRACON
Fri 04:04:14 AM 40.7167 -74.1500 194° South 139 160 600 -689 Descending New York TRACON

Login

Don't have an account? Register now (free) for customized features, flight alerts, and more!